This is the latest recevied weather packets stored in our database for station/object KD9YTS-13. If no packets are shown the sender has not sent any weather packets the latest 10 day(s).
| Time | Temp. | Humidity | Pressure | Rain* | Wind** | Luminosity | Snow |
|---|---|---|---|---|---|---|---|
| 1777684582 | -17.78° C | 100% | - | 0 mm | - | - | - |
| 1777683382 | 5° C | 4% | - | 0 mm | - | - | - |
| 1777682182 | -17.78° C | 100% | - | 0 mm | - | - | - |
| 1777680982 | -17.78° C | 100% | - | 0 mm | - | - | - |
| 1777679782 | -17.78° C | 100% | - | 0 mm | - | - | - |
| 1777678582 | 7.78° C | 3% | - | 0 mm | - | - | - |
| 1777677383 | 7.78° C | 3% | - | 0 mm | - | - | - |
| 1777676182 | -17.78° C | 100% | - | 0 mm | - | - | - |
| 1777674982 | -17.78° C | 100% | - | 0 mm | - | - | - |
| 1777673782 | 8.33° C | 3% | - | 0 mm | - | - | - |
| 1777672582 | 7.22° C | 4% | - | 0 mm | - | - | - |
| 1777671382 | 8.33° C | 4% | - | 0 mm | - | - | - |
| 1777670183 | -17.78° C | 100% | - | 0 mm | - | - | - |
| 1777668983 | -17.78° C | 100% | - | 0 mm | - | - | - |
| 1777667782 | -17.78° C | 100% | - | 0 mm | - | - | - |
| 1777665383 | -17.78° C | 100% | - | 0 mm | - | - | - |
| 1777664182 | -17.78° C | 100% | - | 0 mm | - | - | - |
| 1777662982 | -17.78° C | 100% | - | 0 mm | - | - | - |
| 1777661782 | 5.56° C | 4% | - | 0 mm | - | - | - |
| 1777660583 | 6.67° C | 4% | - | 0 mm | - | - | - |
| 1777659382 | -17.78° C | 100% | - | 0 mm | - | - | - |
| 1777658182 | -17.78° C | 100% | - | 0 mm | - | - | - |
| 1777656983 | -17.78° C | 100% | - | 0 mm | - | - | - |
| 1777655786 | 6.11° C | 3% | - | 0 mm | - | - | - |
| 1777654583 | 6.11° C | 3% | - | 0 mm | - | - | - |
* Rain latest hour (hover to see other rain measurements)
** Current wind speed in m/s (hover to see current wind gust speed)